Sign in:
Email
 Password  save:
  
 Company Reports 
 
   
My Recent Searches
  Help
 
   
 
 
Get Institutions for : 
AutoNation Inc (AN)    
$55.12 0.81 (1.45%) as of 4:30 Mon 7/28


Download
     
Institutional Holders
Viewing Quarter :
  
Total Institutions: 250    2
Total shares held : 
74,744,190  
% of shares held : 
61.82%  
Changes In:
New/increased positions vs   
old/decreased positions : 
  -14  
Amount of shares held : 
-664,446  
% of shares held change : 
  -0.55%  
Quarter Price vs. Current Price:
Last Quarter's Starting Price
$49.28  
Last Quarter's Ending Price : 
$53.23  
Last Quarter's Average Price
$50.91  
Change from last quarter's     
avg. price to the last closing  : 
4.21 (8.27%)  




 
All Securities Held :
Positions
     Shares
% Of
Total Shares
New Positions :
33
 5,271,349
 7.05%
 
Increased Positions :
87
 5,053,907
 6.76%
 
Unchanged Positions :
27
 2,482,484
 3.32%
 
Decreased Positions :
103
-7,172,590
-9.6%
 
Closed Positions :
31
-3,817,112
-5.11%
 
Guru Positions :
2
12,545,243
 16.78%
 
View holdings for period: 
6-30-2012 View holdings for period: 
9-30-2012 View holdings for period: 
12-31-2012 View holdings for period: 
3-31-2013 View holdings for period: 
6-30-2013 View holdings for period: 
9-30-2013 View holdings for period: 
12-31-2013 View holdings for the current period

  Page 1 of 1  
Free Registration Required For Full Results


            Institution Name
Portfolio
Position
New/Closed
Position

Filing Date

Total Shares

Total Value

Change in Shares

File
   RBS PARTNERS LP -- Notable Guru -- 2 - 2014-03-31 12,357,833 $657,807,000 -3,407,410
   CAPITAL RESEARCH GLOBAL INVESTORS 157 - 2014-03-31 6,635,707 $353,219,000 -158,293
   HORIZON KINETICS LLC 7 - 2014-03-31 4,972,785 $264,701,000 -639,777
   VANGUARD GROUP INC 828 - 2014-03-31 4,637,466 $246,852,000 54,525
   LONE PINE CAPITAL LLC 40 *New 2014-03-31 3,991,755 $212,481,000 3,991,755
   OZ MANAGEMENT LP 35 - 2014-03-31 3,075,093 $163,687,000 477,620
   SCOPIA MANAGEMENT INC 4 - 2014-03-31 2,735,613 $145,617,000 111,531
   SIRIOS CAPITAL MANAGEMENT L P 4 - 2014-03-31 2,714,705 $121,290,000 1,524,645
   STATE STREET CORP 786 - 2014-03-31 2,205,233 $117,385,000 -244,532
   BILL & MELINDA GATES FOUNDATION TRUST 16 - 2014-03-31 1,898,716 $101,069,000 0
   BLACKROCK INSTITUTIONAL TRUST COMPANY 1009 - 2014-03-31 1,472,025 $78,356,000 -23,698
   EMINENCE CAPITAL LLC 32 - 2014-03-31 1,390,042 $73,992,000 63,582
   EATON VANCE MANAGEMENT 128 - 2014-03-31 1,261,586 $67,154,000 732,314
   CITADEL ADVISORS LLC 211 - 2014-03-31 1,216,334 $64,746,000 -168,948
   CLOUGH CAPITAL PARTNERS L P 6 - 2014-03-31 1,163,100 $61,912,000 8,000
   PORTER ORLIN LLC 15 - 2014-03-31 1,088,000 $57,914,000 445,000
   GAMCO INVESTORS INC ET AL 93 - 2014-03-31 1,075,145 $57,230,000 -26,034
   WELLS FARGO & CO/MN 719 - 2014-03-31 1,025,531 $54,589,000 -156,613
   FMR LLC 1270 - 2014-03-31 996,224 $53,029,000 -78,781
   BANK OF AMERICA CORP /DE/ 637 - 2014-03-31 904,579 $48,150,000 93,524
   LOOMIS SAYLES & CO L P 136 - 2014-03-31 892,170 $47,490,000 148,353
   AXIOM INTERNATIONAL INVESTORS LLC /DE 44 - 2014-03-31 819,200 $43,606,000 -45,100
   NEW MOUNTAIN VANTAGE ADVISERS LLC 22 - 2014-03-31 743,018 $39,551,000 108,587
   BLACKROCK FUND ADVISORS 1666 - 2014-03-31 645,393 $34,354,000 -620
   BANK OF NEW YORK MELLON CORP 1128 - 2014-03-31 636,143 $33,862,000 22,958
   NORTHERN TRUST CORP 1184 - 2014-03-31 581,742 $30,965,000 -29,766
   APEX CAPITAL MANAGEMENT 39 - 2014-03-31 566,592 $30,160,000 23,198
   POLAR CAPITAL LLP 43 - 2014-03-31 516,080 $27,471,000 109,543
   GUGGENHEIM CAPITAL LLC 478 - 2014-03-31 481,943 $25,654,000 -28,558
   GEODE CAPITAL MANAGEMENT LLC 728 - 2014-03-31 446,880 $23,779,000 -7,082
   GOLDMAN SACHS GROUP INC/ 1170 - 2014-03-31 420,668 $22,392,000 -35,377
   GABELLI FUNDS LLC 266 - 2014-03-31 397,200 $21,143,000 -800
   EVERCORE WEALTH MANAGEMENT, LLC 28 - 2014-03-31 396,119 $21,095,000 19,154
   BLUE ARROW CAPITAL MANAGEMENT LLC 7 - 2014-03-31 383,775 $20,428,000 118,775
   ZEKE CAPITAL ADVISORS, LLC 1 - 2014-03-31 380,552 $20,257,000 0
   MILLENNIUM MANAGEMENT LLC 420 - 2014-03-31 365,213 $19,440,000 48,269
   BLACKROCK INC. 529 - 2014-03-31 339,961 $18,097,000 243,465
   SPEARS ABACUS ADVISORS LLC 23 - 2014-03-31 300,020 $15,970,000 -15,083
   RENAISSANCE TECHNOLOGIES LLC 644 - 2014-03-31 279,061 $14,854,000 -574,639
   MARINER WEALTH ADVISORS, LLC 10 - 2014-03-31 256,549 $13,656,000 0
   DIMENSIONAL FUND ADVISORS INC 1932 - 2014-03-31 254,962 $13,570,000 2,078
   NEW YORK STATE COMMON RETIREMENT FUND 797 - 2014-03-31 244,331 $13,006,000 24,200
   MORGAN STANLEY 1810 - 2014-03-31 220,314 $11,727,000 -77,220
   3G CAPITAL PARTNERS LTD. 20 *New 2014-03-31 215,888 $11,492,000 215,888
   HIGHFIELDS CAPITAL MANAGEMENT LP 62 *New 2014-03-31 209,989 $11,178,000 209,989
   KOHLBERG KRAVIS ROBERTS & CO. 46 *New 2014-03-31 204,300 $10,875,000 204,300
   IVORY INVESTMENT MANAGEMENT LP 60 - 2014-03-31 199,986 $10,645,000 -55,809
   ALLIANCEBERNSTEIN L.P. 861 - 2014-03-31 183,562 $9,771,000 90,327
   BLACKROCK INVESTMENT MANAGEMENT LLC 939 - 2014-03-31 182,771 $9,729,000 -7,082
   SCHWAB CHARLES INVESTMENT MANAGEMENT INC 870 - 2014-03-31 172,976 $9,208,000 10,489
   CALIFORNIA PUBLIC EMPLOYEES RETIREMENT SYSTEM 988 - 2014-03-31 174,570 $9,140,000 5,200
   SUSQUEHANNA INTERNATIONAL GROUP, LLP 589 - 2014-03-31 171,109 $9,108,000 -12,258
   Private Capital Management LLC 35 - 2014-03-31 167,889 $8,937,000 -4,849
   BLACKROCK GROUP LTD 932 - 2014-03-31 157,827 $8,400,000 7,832
   TIAA CREF INVESTMENT MANAGEMENT LLC 1272 - 2014-03-31 150,325 $8,002,000 -6,632
   Winton Capital Management Ltd 356 - 2014-03-31 146,964 $7,823,000 87,192
   MANAGED ACCOUNT ADVISORS LLC 1082 - 2014-03-31 146,949 $7,822,000 5,921
   LEGAL & GENERAL GROUP PLC 678 - 2014-03-31 146,209 $7,783,000 585
   Atlantic Trust Group LLC 220 - 2014-03-31 135,213 $7,423,000 0
   PARAMETRIC PORTFOLIO ASSOCIATES 893 - 2014-03-31 135,342 $7,204,000 3,680
   MAPLELANE CAPITAL, LLC 27 *New 2014-03-31 135,000 $7,186,000 135,000
   HANCOCK HOLDING CO 183 - 2014-03-31 122,722 $6,532,000 2,450
   SANDLER CAPITAL MANAGEMENT 110 *New 2014-03-31 120,800 $6,430,000 120,800
   INVESCO LTD 1644 - 2014-03-31 113,345 $6,034,000 -291,694
   OLD WEST INVESTMENT MANAGEMENT, LLC 8 - 2014-03-31 111,968 $5,960,000 -6,305
   LEUTHOLD WEEDEN CAPITAL MANAGEMENT LLC 75 - 2014-03-31 110,661 $5,890,000 -1,282
   WALLEYE TRADING LLC 17 *New 2014-03-31 108,606 $5,781,000 108,606
   SHAKER INVESTMENTS LLC/OH 8 - 2014-03-31 104,942 $5,586,000 -4,283
   PRICE T ROWE ASSOCIATES INC /MD/ 1406 - 2014-03-31 104,801 $5,579,000 0
   BARCLAYS PLC 896 - 2014-03-31 102,908 $5,454,000 67,962
   CALIFORNIA STATE TEACHERS RETIREMENT SYSTEM 960 - 2014-03-31 92,454 $4,921,000 400
   RHUMBLINE ADVISERS 831 - 2014-03-31 91,701 $4,881,000 369
   PRUDENTIAL FINANCIAL INC 989 - 2014-03-31 90,442 $4,815,000 15,389
   DENALI ADVISORS LLC 22 - 2014-03-31 89,600 $4,769,000 2,400
   NEW YORK STATE TEACHERS RETIREMENT SYSTEM 867 - 2014-03-31 88,755 $4,724,000 -365
   PRINCIPAL FINANCIAL GROUP INC 1398 - 2014-03-31 87,641 $4,665,000 -1,521
   FIRST TRUST ADVISORS LP 1005 - 2014-03-31 86,856 $4,623,000 -195,049
   GOTHAM ASSET MANAGEMENT, LLC 372 - 2014-03-31 86,299 $4,594,000 32,702
   LOS ANGELES CAPITAL MANAGEMENT & EQUITY RESEARCH I 355 - 2014-03-31 84,580 $4,502,000 -350
   CREDIT AGRICOLE S A 616 - 2014-03-31 82,734 $4,404,000 37,100
   BP PLC 170 *New 2014-03-31 78,000 $4,151,000 78,000
   DIXON HUBARD FEINOUR & BROWN INC 24 - 2014-03-31 77,608 $4,131,000 -1,432
   HBK INVESTMENTS L P 152 - 2014-03-31 75,600 $4,024,000 56,127
   CANADA PENSION PLAN INVESTMENT BOARD 639 - 2014-03-31 70,866 $3,772,000 58,001
   STATE BOARD OF ADMINISTRATION OF FLORIDA RETIREMEN 917 - 2014-03-31 67,073 $3,570,000 -5,329
   MANUFACTURERES LIFE INSURANCE CO 1177 - 2014-03-31 63,574 $3,384,000 -409
   COMERICA BANK 831 - 2014-03-31 60,475 $3,219,000 -538
   UBS GLOBAL ASSET MANAGEMENT AMERICAS INC 1096 - 2014-03-31 59,701 $3,178,000 15,487
   CREDIT SUISSE/ 1828 - 2014-03-31 57,667 $3,070,000 -33,454
   DEUTSCHE BANK AG 2039 - 2014-03-31 56,389 $2,999,000 -253,161
   TD ASSET MANAGEMENT INC 761 - 2014-03-31 55,457 $2,952,000 200
   HSBC HOLDINGS PLC 810 - 2014-03-31 55,322 $2,939,000 -7,532
   GRANTHAM MAYO VAN OTTERLOO & CO LLC 365 - 2014-03-31 54,300 $2,890,000 -39,358
   Centerline Investment Partners LP 20 *New 2014-03-31 50,000 $2,662,000 50,000
   SMITH, GRAHAM & CO., INVESTMENT ADVISORS, LP 110 - 2014-03-31 46,518 $2,476,000 -710
   ING INVESTMENT MANAGEMENT LLC 1038 - 2014-03-31 45,236 $2,408,000 -12
   CHEVY CHASE TRUST HOLDINGS, INC. 535 - 2014-03-31 44,836 $2,387,000 -2,146
   SYNOVUS FINANCIAL CORP 144 - 2014-03-31 44,340 $2,360,000 -35
   BRANDYWINE ASSET MANAGEMENT LLC 523 - 2014-03-31 42,560 $2,266,000 280
   TEACHERS ADVISORS INC 1505 - 2014-03-31 42,105 $2,241,000 3,800

  100 Records found
  1    
  Page 1 of 1
Free Registration Required For Full Results